createdAt,value
2022-07-25T00:01:51.883Z,20.65
2022-07-25T00:04:19.005Z,20.69
2022-07-25T00:06:46.734Z,20.65
2022-07-25T00:09:16.132Z,20.48
2022-07-25T00:11:43.000Z,20.61
2022-07-25T00:14:10.469Z,20.61
2022-07-25T00:16:37.539Z,20.53
2022-07-25T00:19:04.870Z,20.56
2022-07-25T00:21:32.017Z,20.55
2022-07-25T00:23:58.924Z,20.49
2022-07-25T00:26:27.513Z,20.41
2022-07-25T00:28:54.567Z,20.42
2022-07-25T00:31:21.581Z,20.41
2022-07-25T00:33:48.471Z,20.48
2022-07-25T00:36:15.349Z,20.56
2022-07-25T00:38:44.957Z,20.47
2022-07-25T00:41:11.868Z,20.48
2022-07-25T00:43:43.187Z,20.37
2022-07-25T00:46:14.116Z,20.45
2022-07-25T00:48:46.364Z,20.46
2022-07-25T00:51:13.454Z,20.36
2022-07-25T00:53:40.337Z,20.22
2022-07-25T00:56:07.828Z,20.08
2022-07-25T00:58:35.226Z,20.08
2022-07-25T01:01:02.589Z,20.08
2022-07-25T01:03:29.689Z,20.23
2022-07-25T01:05:56.681Z,20.19
2022-07-25T01:08:23.974Z,20.31
2022-07-25T01:10:51.011Z,20.33
2022-07-25T01:13:17.948Z,20.43
2022-07-25T01:15:47.858Z,20.39
2022-07-25T01:18:15.053Z,20.46
2022-07-25T01:20:41.956Z,20.58
2022-07-25T01:23:08.772Z,20.58
2022-07-25T01:25:35.643Z,20.63
2022-07-25T01:28:02.518Z,20.70
2022-07-25T01:30:29.344Z,20.63
2022-07-25T01:32:56.161Z,20.70
2022-07-25T01:35:23.146Z,20.65
2022-07-25T01:37:52.340Z,20.62
2022-07-25T01:40:19.189Z,20.72
2022-07-25T01:42:46.134Z,20.67
2022-07-25T01:45:13.717Z,20.75
2022-07-25T01:47:41.302Z,20.70
2022-07-25T01:50:14.083Z,20.76
2022-07-25T01:52:41.008Z,20.84
2022-07-25T01:55:08.660Z,20.85
2022-07-25T01:57:36.178Z,20.90
2022-07-25T02:00:07.045Z,20.99
2022-07-25T02:02:43.544Z,21.09
2022-07-25T02:05:12.435Z,21.15
2022-07-25T02:07:39.658Z,21.11
2022-07-25T02:10:10.155Z,21.19
2022-07-25T02:12:37.113Z,20.75
2022-07-25T02:15:04.375Z,20.83
2022-07-25T02:17:31.312Z,20.92
2022-07-25T02:19:58.228Z,21.05
2022-07-25T02:22:25.245Z,20.83
2022-07-25T02:24:52.040Z,20.71
2022-07-25T02:27:19.074Z,20.94
2022-07-25T02:29:45.919Z,20.75
2022-07-25T02:32:12.829Z,20.82
2022-07-25T02:34:39.708Z,20.95
2022-07-25T02:37:06.576Z,21.09
2022-07-25T02:39:33.540Z,21.15
2022-07-25T02:42:06.132Z,21.27
2022-07-25T02:44:33.280Z,21.33
2022-07-25T02:47:00.070Z,21.47
2022-07-25T02:49:27.057Z,21.76
2022-07-25T02:51:53.867Z,21.96
2022-07-25T02:54:20.825Z,22.49
2022-07-25T02:56:47.672Z,23.56
2022-07-25T02:59:14.844Z,23.39
2022-07-25T03:01:41.820Z,23.52
2022-07-25T03:04:09.317Z,24.39
2022-07-25T03:06:36.582Z,25.25
2022-07-25T03:09:03.805Z,25.85
2022-07-25T03:11:30.685Z,26.37
2022-07-25T03:14:00.635Z,26.93
2022-07-25T03:16:27.527Z,27.33
2022-07-25T03:18:55.493Z,27.76
2022-07-25T03:21:22.359Z,28.43
2022-07-25T03:23:52.461Z,28.81
2022-07-25T03:26:49.001Z,29.33
2022-07-25T03:29:15.974Z,29.55
2022-07-25T03:31:42.841Z,30.08
2022-07-25T03:34:09.968Z,30.58
2022-07-25T03:36:36.876Z,30.95
2022-07-25T03:39:05.541Z,31.39
2022-07-25T03:41:32.865Z,31.83
2022-07-25T03:43:59.877Z,32.31
2022-07-25T03:46:26.854Z,32.50
2022-07-25T03:48:53.928Z,32.69
2022-07-25T03:51:20.891Z,33.05
2022-07-25T03:53:47.751Z,33.05
2022-07-25T03:56:14.582Z,33.32
2022-07-25T03:58:41.613Z,33.48
2022-07-25T04:01:08.514Z,33.81
2022-07-25T04:03:37.648Z,33.68
2022-07-25T04:06:04.544Z,33.80
2022-07-25T04:08:34.019Z,34.21
2022-07-25T04:11:00.861Z,34.13
2022-07-25T04:13:27.761Z,33.95
2022-07-25T04:15:54.542Z,34.50
2022-07-25T04:18:27.418Z,34.24
2022-07-25T04:20:55.668Z,33.22
2022-07-25T04:23:22.541Z,32.68
2022-07-25T04:25:49.471Z,32.08
2022-07-25T04:28:16.443Z,32.23
2022-07-25T04:30:43.500Z,31.23
2022-07-25T04:33:20.775Z,30.90
2022-07-25T04:35:48.474Z,30.48
2022-07-25T04:38:15.562Z,30.41
2022-07-25T04:40:42.645Z,30.37
2022-07-25T04:43:10.047Z,30.18
2022-07-25T04:45:37.085Z,30.87
2022-07-25T04:48:24.128Z,31.44
2022-07-25T04:50:51.194Z,32.06
2022-07-25T04:53:38.236Z,32.29
2022-07-25T04:56:06.164Z,32.06
2022-07-25T04:58:33.095Z,32.41
2022-07-25T05:01:08.796Z,32.99
2022-07-25T05:03:35.997Z,33.18
2022-07-25T05:06:03.009Z,33.07
2022-07-25T05:08:30.016Z,33.03
2022-07-25T05:10:58.802Z,33.01
2022-07-25T05:13:25.752Z,32.87
2022-07-25T05:15:52.669Z,32.89
2022-07-25T05:18:19.681Z,32.95
2022-07-25T05:20:51.806Z,32.93
2022-07-25T05:23:18.729Z,32.50
2022-07-25T05:25:45.644Z,33.05
2022-07-25T05:28:12.548Z,32.36
2022-07-25T05:30:40.131Z,32.33
2022-07-25T05:33:07.600Z,32.25
2022-07-25T05:35:34.517Z,32.25
2022-07-25T05:38:01.412Z,32.32
2022-07-25T05:40:30.669Z,32.42
2022-07-25T05:43:02.566Z,32.41
2022-07-25T05:45:30.519Z,32.46
2022-07-25T05:47:57.459Z,32.32
2022-07-25T05:50:24.694Z,32.37
2022-07-25T05:52:51.610Z,32.24
2022-07-25T05:55:18.821Z,32.27
2022-07-25T05:57:45.860Z,32.32
2022-07-25T06:00:13.212Z,31.99
2022-07-25T06:02:40.211Z,32.07
2022-07-25T06:05:07.623Z,32.09
2022-07-25T06:07:34.472Z,32.54
2022-07-25T06:10:01.433Z,32.65
2022-07-25T06:12:28.286Z,32.73
2022-07-25T06:14:55.337Z,32.34
2022-07-25T06:17:22.589Z,32.35
2022-07-25T06:19:49.494Z,32.56
2022-07-25T06:22:16.649Z,32.55
2022-07-25T06:24:43.806Z,32.90
2022-07-25T06:27:10.962Z,32.76
2022-07-25T06:29:38.389Z,32.47
2022-07-25T06:32:05.954Z,32.74
2022-07-25T06:34:32.845Z,32.40
2022-07-25T06:36:59.806Z,32.49
2022-07-25T06:39:26.940Z,32.77
2022-07-25T06:41:53.845Z,32.71
2022-07-25T06:44:20.978Z,32.95
2022-07-25T06:46:47.857Z,32.61
2022-07-25T06:49:17.640Z,32.87
2022-07-25T06:51:44.446Z,32.32
2022-07-25T06:54:11.342Z,31.96
2022-07-25T06:56:38.193Z,32.07
2022-07-25T06:59:05.071Z,31.84
2022-07-25T07:01:31.947Z,32.00
2022-07-25T07:03:58.831Z,32.59
2022-07-25T07:06:25.673Z,32.25
2022-07-25T07:08:52.735Z,32.36
2022-07-25T07:11:19.765Z,32.66
2022-07-25T07:13:46.668Z,32.69
2022-07-25T07:16:13.617Z,32.49
2022-07-25T07:18:41.479Z,32.58
2022-07-25T07:21:10.406Z,33.08
2022-07-25T07:23:46.730Z,33.05
2022-07-25T07:26:14.743Z,32.59
2022-07-25T07:28:41.763Z,33.09
2022-07-25T07:31:17.507Z,33.41
2022-07-25T07:33:50.527Z,33.49
2022-07-25T07:36:45.002Z,32.81
2022-07-25T07:39:24.011Z,33.48
2022-07-25T07:41:53.351Z,33.35
2022-07-25T07:44:20.197Z,33.15
2022-07-25T07:46:51.915Z,33.50
2022-07-25T07:49:21.786Z,33.57
2022-07-25T07:51:48.620Z,33.40
2022-07-25T07:54:16.245Z,32.97
2022-07-25T07:56:45.958Z,32.63
2022-07-25T07:59:12.753Z,32.40
2022-07-25T08:01:53.254Z,32.11
2022-07-25T08:04:20.242Z,31.90
2022-07-25T08:06:47.082Z,31.98
2022-07-25T08:09:16.012Z,32.65
2022-07-25T08:11:43.244Z,33.01
2022-07-25T08:14:10.536Z,33.14
2022-07-25T08:16:40.546Z,33.54
2022-07-25T08:19:20.568Z,33.08
2022-07-25T08:21:47.500Z,32.79
2022-07-25T08:24:14.341Z,32.58
2022-07-25T08:26:45.562Z,32.63
2022-07-25T08:29:23.862Z,32.36
2022-07-25T08:31:56.880Z,31.85
2022-07-25T08:34:23.652Z,32.25
2022-07-25T08:36:52.996Z,32.22
2022-07-25T08:39:19.874Z,32.37
2022-07-25T08:41:47.505Z,32.36
2022-07-25T08:44:17.345Z,32.65
2022-07-25T08:46:50.235Z,32.55
2022-07-25T08:49:19.878Z,32.87
2022-07-25T08:51:48.064Z,32.91
2022-07-25T08:54:47.594Z,33.53
2022-07-25T08:57:17.602Z,33.67
2022-07-25T08:59:45.785Z,33.41
2022-07-25T09:02:14.411Z,33.64
2022-07-25T09:05:03.556Z,33.82
2022-07-25T09:07:39.099Z,33.66
2022-07-25T09:10:29.683Z,33.95
2022-07-25T09:13:08.490Z,33.62
2022-07-25T09:15:37.669Z,33.53
2022-07-25T09:18:18.350Z,33.25
2022-07-25T09:20:59.924Z,33.96
2022-07-25T09:23:56.924Z,34.14
2022-07-25T09:26:26.129Z,34.05
2022-07-25T09:28:59.865Z,33.97
2022-07-25T09:31:34.475Z,34.10
2022-07-25T09:34:01.436Z,33.78
2022-07-25T09:36:28.283Z,33.84
2022-07-25T09:39:02.326Z,33.51
2022-07-25T09:41:40.591Z,32.87
2022-07-25T09:44:30.498Z,32.59
2022-07-25T09:50:19.312Z,32.83
2022-07-25T09:52:49.584Z,32.80
2022-07-25T09:55:18.269Z,32.81
2022-07-25T09:57:48.318Z,32.49
2022-07-25T10:00:24.088Z,33.20
2022-07-25T10:03:09.392Z,33.56
2022-07-25T10:06:08.333Z,33.57
2022-07-25T10:08:37.870Z,33.35
2022-07-25T10:11:05.251Z,33.27
2022-07-25T10:13:35.904Z,33.39
2022-07-25T10:16:03.030Z,33.09
2022-07-25T10:18:33.460Z,32.95
2022-07-25T10:21:26.153Z,33.31
2022-07-25T10:24:02.262Z,33.14
2022-07-25T10:26:30.567Z,32.53
2022-07-25T10:29:33.638Z,32.75
2022-07-25T10:32:13.411Z,33.02
2022-07-25T10:34:40.395Z,32.87
2022-07-25T10:37:28.434Z,33.53
2022-07-25T10:39:55.592Z,33.43
2022-07-25T10:42:23.486Z,33.28
2022-07-25T10:44:55.373Z,32.38
2022-07-25T10:47:26.253Z,32.18
2022-07-25T10:50:29.853Z,32.87
2022-07-25T10:53:01.504Z,33.41
2022-07-25T10:55:30.856Z,33.66
2022-07-25T10:58:17.588Z,33.40
2022-07-25T11:00:51.281Z,33.40
2022-07-25T11:03:18.900Z,33.38
2022-07-25T11:05:51.708Z,32.39
2022-07-25T11:08:22.120Z,32.46
2022-07-25T11:10:53.062Z,32.53
2022-07-25T11:13:20.057Z,32.45
2022-07-25T11:15:56.018Z,32.40
2022-07-25T11:18:52.109Z,31.69
2022-07-25T11:21:41.516Z,31.71
2022-07-25T11:24:08.455Z,32.00
2022-07-25T11:26:53.586Z,31.53
2022-07-25T11:29:22.814Z,31.46
2022-07-25T11:32:07.880Z,31.22
2022-07-25T11:34:38.628Z,29.21
2022-07-25T11:37:23.642Z,28.56
2022-07-25T11:39:53.754Z,27.90
2022-07-25T11:42:22.519Z,27.21
2022-07-25T11:44:53.652Z,26.78
2022-07-25T11:47:25.210Z,26.35
2022-07-25T11:50:00.086Z,26.35
2022-07-25T11:52:40.762Z,26.33
2022-07-25T11:55:17.497Z,26.63
2022-07-25T11:57:46.956Z,26.80
2022-07-25T12:00:20.543Z,26.22
2022-07-25T12:02:51.338Z,26.34
2022-07-25T12:05:36.184Z,26.05
2022-07-25T12:08:17.862Z,26.33
2022-07-25T12:10:46.322Z,26.39
2022-07-25T12:13:28.936Z,26.44
2022-07-25T12:15:58.263Z,26.46
2022-07-25T12:18:28.719Z,26.53
2022-07-25T12:20:57.654Z,26.61
2022-07-25T12:23:25.183Z,26.68
2022-07-25T12:25:52.183Z,26.68
2022-07-25T12:28:19.107Z,26.78
2022-07-25T12:30:48.123Z,26.58
2022-07-25T12:33:17.462Z,26.48
2022-07-25T12:35:44.887Z,26.47
2022-07-25T12:38:14.707Z,26.52
2022-07-25T12:40:41.775Z,26.53
2022-07-25T12:43:08.661Z,26.54
2022-07-25T12:45:37.805Z,26.48
2022-07-25T12:48:05.048Z,26.37
2022-07-25T12:50:35.154Z,26.20
2022-07-25T12:53:02.665Z,26.04
2022-07-25T12:55:29.522Z,26.06
2022-07-25T12:57:56.462Z,26.24
2022-07-25T13:00:26.526Z,26.15
2022-07-25T13:02:54.238Z,26.16
2022-07-25T13:05:22.491Z,26.10
2022-07-25T13:08:08.440Z,26.12
2022-07-25T13:10:35.400Z,26.08
2022-07-25T13:13:02.296Z,26.11
2022-07-25T13:15:29.196Z,25.85
2022-07-25T13:17:56.216Z,25.66
2022-07-25T13:20:23.244Z,25.15
2022-07-25T13:22:52.962Z,25.01
2022-07-25T13:25:19.898Z,24.85
2022-07-25T13:27:48.480Z,24.57
2022-07-25T13:30:15.775Z,24.54
2022-07-25T13:32:45.215Z,24.17
2022-07-25T13:35:12.158Z,24.11
2022-07-25T13:37:38.971Z,24.15
2022-07-25T13:40:06.872Z,24.15
2022-07-25T13:42:33.661Z,24.07
2022-07-25T13:45:00.548Z,23.51
2022-07-25T13:47:30.374Z,23.53
2022-07-25T13:49:57.604Z,23.48
2022-07-25T13:52:24.536Z,23.34
2022-07-25T13:54:51.458Z,23.47
2022-07-25T13:57:18.365Z,23.26
2022-07-25T13:59:45.534Z,23.34
2022-07-25T14:02:50.667Z,23.39
2022-07-25T14:05:20.751Z,23.46
2022-07-25T14:08:05.184Z,23.40
2022-07-25T14:10:32.168Z,23.46
2022-07-25T14:13:22.155Z,23.47
2022-07-25T14:15:49.184Z,23.44
2022-07-25T14:18:17.192Z,23.45
2022-07-25T14:20:44.633Z,23.53
2022-07-25T14:23:11.476Z,23.64
2022-07-25T14:25:40.038Z,23.78
2022-07-25T14:28:09.946Z,23.85
2022-07-25T14:30:37.142Z,23.89
2022-07-25T14:33:08.945Z,23.93
2022-07-25T14:35:36.038Z,23.82
2022-07-25T14:38:05.971Z,23.92
2022-07-25T14:40:37.835Z,23.75
2022-07-25T14:43:05.452Z,23.78
2022-07-25T14:45:36.591Z,23.69
2022-07-25T14:48:05.999Z,23.50
2022-07-25T14:50:35.254Z,23.67
2022-07-25T14:53:14.466Z,23.79
2022-07-25T14:55:41.467Z,23.76
2022-07-25T14:58:08.307Z,23.75
2022-07-25T15:00:35.340Z,23.78
2022-07-25T15:03:05.503Z,23.81
2022-07-25T15:05:32.464Z,23.80
2022-07-25T15:08:25.456Z,23.76
2022-07-25T15:10:52.360Z,23.78
2022-07-25T15:13:34.446Z,23.73
2022-07-25T15:16:02.728Z,23.72
2022-07-25T15:18:29.804Z,23.61
2022-07-25T15:20:56.830Z,23.60
2022-07-25T15:23:24.643Z,23.66
2022-07-25T15:26:02.328Z,23.69
2022-07-25T15:28:49.241Z,23.78
2022-07-25T15:31:16.369Z,23.67
2022-07-25T15:33:43.425Z,23.64
2022-07-25T15:36:11.861Z,23.81
2022-07-25T15:38:38.802Z,23.83
2022-07-25T15:41:05.937Z,23.79
2022-07-25T15:43:32.858Z,23.79
2022-07-25T15:45:59.786Z,23.81
2022-07-25T15:48:43.628Z,23.90
2022-07-25T15:51:11.146Z,23.87
2022-07-25T15:53:37.971Z,23.90
2022-07-25T15:56:05.211Z,23.88
2022-07-25T15:58:44.194Z,23.82
2022-07-25T16:01:11.432Z,23.79
2022-07-25T16:04:04.578Z,23.70
2022-07-25T16:06:31.791Z,23.92
2022-07-25T16:08:58.650Z,23.87
2022-07-25T16:11:25.536Z,23.93
2022-07-25T16:13:53.065Z,23.84
2022-07-25T16:16:20.252Z,23.81
2022-07-25T16:18:47.478Z,23.78
2022-07-25T16:21:14.649Z,23.88
2022-07-25T16:23:45.430Z,23.75
2022-07-25T16:26:15.898Z,23.74
2022-07-25T16:28:48.613Z,23.55
2022-07-25T16:31:15.653Z,23.58
2022-07-25T16:33:42.582Z,23.51
2022-07-25T16:36:12.657Z,23.50
2022-07-25T16:38:50.083Z,23.45
2022-07-25T16:41:21.140Z,23.40
2022-07-25T16:43:51.217Z,23.21
2022-07-25T16:46:18.162Z,23.03
2022-07-25T16:48:45.251Z,23.01
2022-07-25T16:51:14.992Z,22.83
2022-07-25T16:53:41.878Z,22.78
2022-07-25T16:56:08.798Z,22.58
2022-07-25T16:58:49.394Z,22.49
2022-07-25T17:01:49.076Z,22.46
2022-07-25T17:04:20.558Z,22.35
2022-07-25T17:06:47.657Z,22.09
2022-07-25T17:09:14.981Z,22.13
2022-07-25T17:11:41.986Z,22.29
2022-07-25T17:14:13.412Z,22.39
2022-07-25T17:16:41.039Z,22.23
2022-07-25T17:19:11.041Z,22.06
2022-07-25T17:21:38.238Z,22.28
2022-07-25T17:24:05.425Z,22.04
2022-07-25T17:26:32.526Z,22.02
2022-07-25T17:29:02.273Z,21.92
2022-07-25T17:31:29.304Z,21.97
2022-07-25T17:33:56.293Z,21.78
2022-07-25T17:36:23.224Z,21.80
2022-07-25T17:38:50.187Z,21.67
2022-07-25T17:41:36.294Z,21.63
2022-07-25T17:44:03.213Z,21.54
2022-07-25T17:46:30.148Z,21.50
2022-07-25T17:48:57.306Z,21.47
2022-07-25T17:51:24.162Z,21.52
2022-07-25T17:53:51.448Z,21.60
2022-07-25T17:56:19.685Z,21.68
2022-07-25T17:58:46.669Z,21.73
2022-07-25T18:01:13.872Z,21.74
2022-07-25T18:03:42.965Z,21.76
2022-07-25T18:06:13.247Z,21.79
2022-07-25T18:08:40.492Z,21.78
2022-07-25T18:11:27.965Z,21.86
2022-07-25T18:13:55.019Z,21.89
2022-07-25T18:16:24.767Z,21.92
2022-07-25T18:18:54.386Z,21.93
2022-07-25T18:21:32.068Z,21.89
2022-07-25T18:24:00.158Z,21.97
2022-07-25T18:26:28.132Z,21.94
2022-07-25T18:28:57.512Z,21.72
2022-07-25T18:31:27.709Z,21.66
2022-07-25T18:34:04.842Z,21.71
2022-07-25T18:36:43.553Z,21.70
2022-07-25T18:39:10.610Z,21.71
2022-07-25T18:41:40.471Z,21.39
2022-07-25T18:44:07.732Z,21.20
2022-07-25T18:46:35.749Z,21.13
2022-07-25T18:49:11.893Z,21.13
2022-07-25T18:51:44.832Z,21.07
2022-07-25T18:54:12.970Z,20.86
2022-07-25T18:56:42.590Z,20.78
2022-07-25T18:59:09.921Z,20.83
2022-07-25T19:01:37.357Z,20.70
2022-07-25T19:04:05.103Z,20.74
2022-07-25T19:06:32.831Z,20.68
2022-07-25T19:09:03.810Z,20.53
2022-07-25T19:11:30.687Z,20.62
2022-07-25T19:13:57.628Z,20.51
2022-07-25T19:16:24.514Z,20.55
2022-07-25T19:18:51.553Z,20.53
2022-07-25T19:21:18.609Z,20.39
2022-07-25T19:23:50.433Z,20.40
2022-07-25T19:26:22.079Z,20.44
2022-07-25T19:28:49.919Z,20.56
2022-07-25T19:31:17.068Z,20.48
2022-07-25T19:33:44.083Z,20.49
2022-07-25T19:36:10.953Z,20.65
2022-07-25T19:38:38.015Z,20.63
2022-07-25T19:41:04.969Z,20.60
2022-07-25T19:43:31.864Z,20.70
2022-07-25T19:45:58.828Z,20.74
2022-07-25T19:48:25.930Z,20.76
2022-07-25T19:50:55.214Z,20.67
2022-07-25T19:53:25.482Z,20.67
2022-07-25T19:55:56.778Z,20.75
2022-07-25T19:58:23.704Z,20.75
2022-07-25T20:00:50.691Z,20.85
2022-07-25T20:03:23.205Z,20.75
2022-07-25T20:05:50.970Z,20.75
2022-07-25T20:08:17.804Z,20.83
2022-07-25T20:10:44.830Z,20.91
2022-07-25T20:13:11.624Z,20.99
2022-07-25T20:15:38.518Z,20.95
2022-07-25T20:18:05.532Z,21.03
2022-07-25T20:20:32.560Z,21.04
2022-07-25T20:23:04.803Z,20.90
2022-07-25T20:25:31.875Z,20.74
2022-07-25T20:28:01.775Z,20.38
2022-07-25T20:30:32.990Z,20.38
2022-07-25T20:33:05.402Z,20.36
2022-07-25T20:35:37.828Z,20.37
2022-07-25T20:38:10.066Z,20.36
2022-07-25T20:40:44.053Z,19.96
2022-07-25T20:43:18.743Z,20.12
2022-07-25T20:45:47.542Z,19.92
2022-07-25T20:48:15.167Z,20.07
2022-07-25T20:50:42.402Z,20.02
2022-07-25T20:53:11.649Z,19.94
2022-07-25T20:55:38.593Z,19.99
2022-07-25T20:58:05.619Z,20.06
2022-07-25T21:00:32.652Z,20.03
2022-07-25T21:03:00.203Z,20.01
2022-07-25T21:05:28.244Z,19.89
2022-07-25T21:07:55.543Z,19.93
2022-07-25T21:10:23.217Z,19.91
2022-07-25T21:12:50.179Z,19.81
2022-07-25T21:15:17.025Z,19.72
2022-07-25T21:17:44.520Z,19.70
2022-07-25T21:20:12.917Z,19.51
2022-07-25T21:22:40.225Z,19.56
2022-07-25T21:25:08.582Z,19.38
2022-07-25T21:27:36.655Z,19.45
2022-07-25T21:30:05.610Z,19.42
2022-07-25T21:32:32.732Z,19.28
2022-07-25T21:34:59.579Z,19.32
2022-07-25T21:37:26.411Z,19.29
2022-07-25T21:39:53.297Z,19.22
2022-07-25T21:42:21.359Z,19.20
2022-07-25T21:44:48.434Z,19.28
2022-07-25T21:47:15.344Z,19.31
2022-07-25T21:49:42.653Z,19.39
2022-07-25T21:52:13.817Z,19.63
2022-07-25T21:54:44.703Z,19.71
2022-07-25T21:57:13.754Z,19.41
2022-07-25T21:59:44.920Z,19.83
2022-07-25T22:02:12.855Z,19.69
2022-07-25T22:04:39.758Z,19.68
2022-07-25T22:07:06.922Z,19.69
2022-07-25T22:09:34.026Z,19.64
2022-07-25T22:12:00.847Z,19.70
2022-07-25T22:14:27.744Z,19.82
2022-07-25T22:16:54.873Z,19.84
2022-07-25T22:19:22.673Z,19.83
2022-07-25T22:21:50.686Z,19.70
2022-07-25T22:24:17.830Z,19.39
2022-07-25T22:26:44.669Z,19.30
2022-07-25T22:29:12.236Z,19.32
2022-07-25T22:31:39.430Z,19.32
2022-07-25T22:34:06.753Z,19.36
2022-07-25T22:36:33.910Z,19.48
2022-07-25T22:39:00.715Z,19.42
2022-07-25T22:41:27.601Z,19.45
2022-07-25T22:43:57.325Z,19.38
2022-07-25T22:46:27.333Z,19.29
2022-07-25T22:48:54.294Z,19.35
2022-07-25T22:51:21.301Z,19.38
2022-07-25T22:53:48.245Z,19.41
2022-07-25T22:56:15.145Z,19.39
2022-07-25T22:58:42.906Z,19.43
2022-07-25T23:01:09.931Z,19.37
2022-07-25T23:03:37.404Z,19.30
2022-07-25T23:06:04.615Z,19.27
2022-07-25T23:08:31.406Z,19.34
2022-07-25T23:10:59.481Z,19.33
2022-07-25T23:13:26.317Z,19.09
2022-07-25T23:15:53.189Z,19.04
2022-07-25T23:18:20.038Z,19.07
2022-07-25T23:20:47.136Z,19.07
2022-07-25T23:23:14.200Z,19.03
2022-07-25T23:25:41.413Z,19.02
2022-07-25T23:28:08.321Z,19.09
2022-07-25T23:30:39.887Z,19.08
2022-07-25T23:33:07.826Z,19.03
2022-07-25T23:35:35.149Z,19.17
2022-07-25T23:38:03.004Z,19.12
2022-07-25T23:40:30.027Z,19.24
2022-07-25T23:42:57.035Z,19.20
2022-07-25T23:45:24.975Z,19.25
2022-07-25T23:47:55.757Z,19.42
2022-07-25T23:50:26.392Z,19.46
2022-07-25T23:52:53.273Z,19.37
2022-07-25T23:55:20.160Z,19.40
2022-07-25T23:57:59.903Z,19.38
